sensor_id;sensor_type;location;lat;lon;timestamp;P1;durP1;ratioP1;P2;durP2;ratioP2
4009;SDS011;2019;48.200;11.548;2022-08-21T00:02:14;3.97;;;3.27;;
4009;SDS011;2019;48.200;11.548;2022-08-21T00:04:42;4.33;;;3.23;;
4009;SDS011;2019;48.200;11.548;2022-08-21T00:07:08;4.37;;;3.17;;
4009;SDS011;2019;48.200;11.548;2022-08-21T00:09:33;4.07;;;3.10;;
4009;SDS011;2019;48.200;11.548;2022-08-21T00:11:59;9.00;;;3.60;;
4009;SDS011;2019;48.200;11.548;2022-08-21T00:14:25;3.33;;;2.90;;
4009;SDS011;2019;48.200;11.548;2022-08-21T00:16:51;3.63;;;2.97;;
4009;SDS011;2019;48.200;11.548;2022-08-21T00:19:16;3.93;;;3.00;;
4009;SDS011;2019;48.200;11.548;2022-08-21T00:21:42;4.60;;;2.90;;
4009;SDS011;2019;48.200;11.548;2022-08-21T00:24:07;4.33;;;2.87;;
4009;SDS011;2019;48.200;11.548;2022-08-21T00:26:33;4.97;;;3.50;;
4009;SDS011;2019;48.200;11.548;2022-08-21T00:28:59;5.00;;;3.00;;
4009;SDS011;2019;48.200;11.548;2022-08-21T00:31:25;4.90;;;3.10;;
4009;SDS011;2019;48.200;11.548;2022-08-21T00:33:50;6.10;;;3.10;;
4009;SDS011;2019;48.200;11.548;2022-08-21T00:36:16;4.77;;;2.90;;
4009;SDS011;2019;48.200;11.548;2022-08-21T00:38:42;5.90;;;3.50;;
4009;SDS011;2019;48.200;11.548;2022-08-21T00:41:08;3.60;;;2.80;;
4009;SDS011;2019;48.200;11.548;2022-08-21T00:43:35;4.93;;;3.10;;
4009;SDS011;2019;48.200;11.548;2022-08-21T00:46:03;4.60;;;3.17;;
4009;SDS011;2019;48.200;11.548;2022-08-21T00:48:30;4.17;;;2.60;;
4009;SDS011;2019;48.200;11.548;2022-08-21T00:51:07;4.03;;;3.27;;
4009;SDS011;2019;48.200;11.548;2022-08-21T00:53:40;4.53;;;2.47;;
4009;SDS011;2019;48.200;11.548;2022-08-21T00:56:09;3.83;;;2.90;;
4009;SDS011;2019;48.200;11.548;2022-08-21T00:58:36;5.30;;;3.00;;
4009;SDS011;2019;48.200;11.548;2022-08-21T01:01:05;2.83;;;2.47;;
4009;SDS011;2019;48.200;11.548;2022-08-21T01:03:32;4.63;;;2.83;;
4009;SDS011;2019;48.200;11.548;2022-08-21T01:05:58;3.13;;;2.60;;
4009;SDS011;2019;48.200;11.548;2022-08-21T01:08:24;2.97;;;2.67;;
4009;SDS011;2019;48.200;11.548;2022-08-21T01:10:51;4.23;;;2.57;;
4009;SDS011;2019;48.200;11.548;2022-08-21T01:13:18;3.60;;;2.53;;
4009;SDS011;2019;48.200;11.548;2022-08-21T01:15:45;3.50;;;2.80;;
4009;SDS011;2019;48.200;11.548;2022-08-21T01:18:14;3.00;;;2.70;;
4009;SDS011;2019;48.200;11.548;2022-08-21T01:20:43;3.20;;;2.20;;
4009;SDS011;2019;48.200;11.548;2022-08-21T01:23:15;3.37;;;2.50;;
4009;SDS011;2019;48.200;11.548;2022-08-21T01:25:41;2.80;;;2.30;;
4009;SDS011;2019;48.200;11.548;2022-08-21T01:28:09;4.33;;;3.07;;
4009;SDS011;2019;48.200;11.548;2022-08-21T01:30:37;3.90;;;3.07;;
4009;SDS011;2019;48.200;11.548;2022-08-21T01:33:04;3.10;;;2.80;;
4009;SDS011;2019;48.200;11.548;2022-08-21T01:35:30;2.57;;;2.23;;
4009;SDS011;2019;48.200;11.548;2022-08-21T01:37:56;4.60;;;2.47;;
4009;SDS011;2019;48.200;11.548;2022-08-21T01:40:21;6.43;;;3.20;;
4009;SDS011;2019;48.200;11.548;2022-08-21T01:42:47;5.10;;;3.17;;
4009;SDS011;2019;48.200;11.548;2022-08-21T01:45:13;2.90;;;2.57;;
4009;SDS011;2019;48.200;11.548;2022-08-21T01:47:40;3.20;;;2.60;;
4009;SDS011;2019;48.200;11.548;2022-08-21T01:50:09;4.70;;;2.40;;
4009;SDS011;2019;48.200;11.548;2022-08-21T01:52:38;3.17;;;2.40;;
4009;SDS011;2019;48.200;11.548;2022-08-21T01:55:05;2.50;;;2.10;;
4009;SDS011;2019;48.200;11.548;2022-08-21T01:57:32;3.00;;;2.30;;
4009;SDS011;2019;48.200;11.548;2022-08-21T01:59:58;3.50;;;2.80;;
4009;SDS011;2019;48.200;11.548;2022-08-21T02:02:23;4.10;;;3.10;;
4009;SDS011;2019;48.200;11.548;2022-08-21T02:04:49;2.80;;;2.40;;
4009;SDS011;2019;48.200;11.548;2022-08-21T02:07:15;3.30;;;2.60;;
4009;SDS011;2019;48.200;11.548;2022-08-21T02:09:41;5.23;;;2.67;;
4009;SDS011;2019;48.200;11.548;2022-08-21T02:12:07;3.50;;;2.60;;
4009;SDS011;2019;48.200;11.548;2022-08-21T02:14:34;2.93;;;2.33;;
4009;SDS011;2019;48.200;11.548;2022-08-21T02:16:59;3.23;;;2.10;;
4009;SDS011;2019;48.200;11.548;2022-08-21T02:19:25;3.80;;;2.50;;
4009;SDS011;2019;48.200;11.548;2022-08-21T02:21:51;3.40;;;2.20;;
4009;SDS011;2019;48.200;11.548;2022-08-21T02:24:16;3.00;;;2.40;;
4009;SDS011;2019;48.200;11.548;2022-08-21T02:26:42;5.03;;;2.53;;
4009;SDS011;2019;48.200;11.548;2022-08-21T02:29:08;3.33;;;2.40;;
4009;SDS011;2019;48.200;11.548;2022-08-21T02:31:33;3.17;;;2.20;;
4009;SDS011;2019;48.200;11.548;2022-08-21T02:33:59;3.37;;;2.67;;
4009;SDS011;2019;48.200;11.548;2022-08-21T02:36:25;4.23;;;2.63;;
4009;SDS011;2019;48.200;11.548;2022-08-21T02:38:50;3.30;;;2.13;;
4009;SDS011;2019;48.200;11.548;2022-08-21T02:41:17;3.80;;;2.53;;
4009;SDS011;2019;48.200;11.548;2022-08-21T02:43:45;3.50;;;2.80;;
4009;SDS011;2019;48.200;11.548;2022-08-21T02:46:12;5.10;;;2.43;;
4009;SDS011;2019;48.200;11.548;2022-08-21T02:48:39;4.43;;;2.60;;
4009;SDS011;2019;48.200;11.548;2022-08-21T02:51:06;3.40;;;2.40;;
4009;SDS011;2019;48.200;11.548;2022-08-21T02:53:36;3.43;;;2.67;;
4009;SDS011;2019;48.200;11.548;2022-08-21T02:56:03;4.10;;;2.77;;
4009;SDS011;2019;48.200;11.548;2022-08-21T02:58:33;3.53;;;2.50;;
4009;SDS011;2019;48.200;11.548;2022-08-21T03:01:02;3.83;;;3.10;;
4009;SDS011;2019;48.200;11.548;2022-08-21T03:03:28;4.60;;;2.30;;
4009;SDS011;2019;48.200;11.548;2022-08-21T03:05:54;3.60;;;2.77;;
4009;SDS011;2019;48.200;11.548;2022-08-21T03:08:20;3.10;;;2.37;;
4009;SDS011;2019;48.200;11.548;2022-08-21T03:10:50;6.87;;;2.50;;
4009;SDS011;2019;48.200;11.548;2022-08-21T03:13:17;3.30;;;2.50;;
4009;SDS011;2019;48.200;11.548;2022-08-21T03:15:45;3.20;;;2.47;;
4009;SDS011;2019;48.200;11.548;2022-08-21T03:18:11;4.10;;;2.73;;
4009;SDS011;2019;48.200;11.548;2022-08-21T03:20:37;3.60;;;2.67;;
4009;SDS011;2019;48.200;11.548;2022-08-21T03:23:05;7.30;;;2.90;;
4009;SDS011;2019;48.200;11.548;2022-08-21T03:25:31;4.80;;;2.37;;
4009;SDS011;2019;48.200;11.548;2022-08-21T03:27:58;4.93;;;3.10;;
4009;SDS011;2019;48.200;11.548;2022-08-21T03:30:24;4.40;;;2.70;;
4009;SDS011;2019;48.200;11.548;2022-08-21T03:32:50;2.80;;;2.50;;
4009;SDS011;2019;48.200;11.548;2022-08-21T03:35:16;2.87;;;2.27;;
4009;SDS011;2019;48.200;11.548;2022-08-21T03:37:42;3.90;;;2.70;;
4009;SDS011;2019;48.200;11.548;2022-08-21T03:40:10;4.03;;;3.03;;
4009;SDS011;2019;48.200;11.548;2022-08-21T03:42:37;7.50;;;2.50;;
4009;SDS011;2019;48.200;11.548;2022-08-21T03:45:03;5.77;;;3.27;;
4009;SDS011;2019;48.200;11.548;2022-08-21T03:47:29;6.67;;;2.80;;
4009;SDS011;2019;48.200;11.548;2022-08-21T03:49:55;4.63;;;2.83;;
4009;SDS011;2019;48.200;11.548;2022-08-21T03:52:20;3.27;;;2.67;;
4009;SDS011;2019;48.200;11.548;2022-08-21T03:54:46;3.60;;;3.00;;
4009;SDS011;2019;48.200;11.548;2022-08-21T03:57:12;3.70;;;2.83;;
4009;SDS011;2019;48.200;11.548;2022-08-21T03:59:38;3.50;;;2.80;;
4009;SDS011;2019;48.200;11.548;2022-08-21T04:02:08;5.03;;;3.17;;
4009;SDS011;2019;48.200;11.548;2022-08-21T04:04:34;8.70;;;2.80;;
4009;SDS011;2019;48.200;11.548;2022-08-21T04:07:01;3.73;;;3.00;;
4009;SDS011;2019;48.200;11.548;2022-08-21T04:09:28;5.73;;;3.20;;
4009;SDS011;2019;48.200;11.548;2022-08-21T04:11:55;4.13;;;2.63;;
4009;SDS011;2019;48.200;11.548;2022-08-21T04:14:21;4.70;;;3.00;;
4009;SDS011;2019;48.200;11.548;2022-08-21T04:16:47;4.47;;;2.83;;
4009;SDS011;2019;48.200;11.548;2022-08-21T04:19:13;3.63;;;3.10;;
4009;SDS011;2019;48.200;11.548;2022-08-21T04:21:39;4.00;;;3.03;;
4009;SDS011;2019;48.200;11.548;2022-08-21T04:24:06;3.60;;;2.80;;
4009;SDS011;2019;48.200;11.548;2022-08-21T04:26:33;5.30;;;3.37;;
4009;SDS011;2019;48.200;11.548;2022-08-21T04:28:59;4.27;;;2.83;;
4009;SDS011;2019;48.200;11.548;2022-08-21T04:31:25;11.53;;;3.47;;
4009;SDS011;2019;48.200;11.548;2022-08-21T04:33:52;3.73;;;3.17;;
4009;SDS011;2019;48.200;11.548;2022-08-21T04:36:17;4.27;;;3.00;;
4009;SDS011;2019;48.200;11.548;2022-08-21T04:38:43;5.13;;;2.70;;
4009;SDS011;2019;48.200;11.548;2022-08-21T04:41:08;4.47;;;2.80;;
4009;SDS011;2019;48.200;11.548;2022-08-21T04:43:34;5.70;;;3.27;;
4009;SDS011;2019;48.200;11.548;2022-08-21T04:46:00;6.30;;;3.30;;
4009;SDS011;2019;48.200;11.548;2022-08-21T04:48:26;4.40;;;2.90;;
4009;SDS011;2019;48.200;11.548;2022-08-21T04:50:54;5.70;;;3.20;;
4009;SDS011;2019;48.200;11.548;2022-08-21T04:53:23;3.40;;;2.53;;
4009;SDS011;2019;48.200;11.548;2022-08-21T04:55:53;4.00;;;3.30;;
4009;SDS011;2019;48.200;11.548;2022-08-21T04:58:22;6.70;;;4.20;;
4009;SDS011;2019;48.200;11.548;2022-08-21T05:00:52;3.70;;;3.27;;
4009;SDS011;2019;48.200;11.548;2022-08-21T05:03:20;3.97;;;3.30;;
4009;SDS011;2019;48.200;11.548;2022-08-21T05:05:46;4.17;;;3.27;;
4009;SDS011;2019;48.200;11.548;2022-08-21T05:08:13;4.80;;;3.40;;
4009;SDS011;2019;48.200;11.548;2022-08-21T05:10:43;3.87;;;3.20;;
4009;SDS011;2019;48.200;11.548;2022-08-21T05:13:09;5.33;;;3.10;;
4009;SDS011;2019;48.200;11.548;2022-08-21T05:15:37;4.63;;;3.40;;
4009;SDS011;2019;48.200;11.548;2022-08-21T05:18:04;3.87;;;3.13;;
4009;SDS011;2019;48.200;11.548;2022-08-21T05:20:30;10.93;;;3.10;;
4009;SDS011;2019;48.200;11.548;2022-08-21T05:22:55;6.00;;;3.30;;
4009;SDS011;2019;48.200;11.548;2022-08-21T05:25:21;3.73;;;3.03;;
4009;SDS011;2019;48.200;11.548;2022-08-21T05:27:47;5.90;;;3.23;;
4009;SDS011;2019;48.200;11.548;2022-08-21T05:30:13;4.33;;;3.30;;
4009;SDS011;2019;48.200;11.548;2022-08-21T05:32:38;3.30;;;2.90;;
4009;SDS011;2019;48.200;11.548;2022-08-21T05:35:04;3.50;;;2.90;;
4009;SDS011;2019;48.200;11.548;2022-08-21T05:37:31;4.80;;;2.87;;
4009;SDS011;2019;48.200;11.548;2022-08-21T05:39:57;4.10;;;3.50;;
4009;SDS011;2019;48.200;11.548;2022-08-21T05:42:23;4.13;;;2.93;;
4009;SDS011;2019;48.200;11.548;2022-08-21T05:44:49;4.90;;;3.23;;
4009;SDS011;2019;48.200;11.548;2022-08-21T05:47:14;6.37;;;3.43;;
4009;SDS011;2019;48.200;11.548;2022-08-21T05:49:40;5.23;;;3.57;;
4009;SDS011;2019;48.200;11.548;2022-08-21T05:52:06;4.20;;;3.20;;
4009;SDS011;2019;48.200;11.548;2022-08-21T05:54:31;5.50;;;3.30;;
4009;SDS011;2019;48.200;11.548;2022-08-21T05:56:57;4.23;;;3.07;;
4009;SDS011;2019;48.200;11.548;2022-08-21T05:59:22;4.63;;;3.10;;
4009;SDS011;2019;48.200;11.548;2022-08-21T06:01:48;4.67;;;3.23;;
4009;SDS011;2019;48.200;11.548;2022-08-21T06:04:14;4.63;;;3.40;;
4009;SDS011;2019;48.200;11.548;2022-08-21T06:06:40;4.27;;;2.90;;
4009;SDS011;2019;48.200;11.548;2022-08-21T06:09:06;4.87;;;3.60;;
4009;SDS011;2019;48.200;11.548;2022-08-21T06:11:32;4.40;;;3.00;;
4009;SDS011;2019;48.200;11.548;2022-08-21T06:13:58;3.67;;;2.77;;
4009;SDS011;2019;48.200;11.548;2022-08-21T06:16:24;5.80;;;2.93;;
4009;SDS011;2019;48.200;11.548;2022-08-21T06:18:50;4.70;;;3.50;;
4009;SDS011;2019;48.200;11.548;2022-08-21T06:21:16;6.30;;;3.50;;
4009;SDS011;2019;48.200;11.548;2022-08-21T06:23:42;3.73;;;2.90;;
4009;SDS011;2019;48.200;11.548;2022-08-21T06:26:08;8.40;;;3.20;;
4009;SDS011;2019;48.200;11.548;2022-08-21T06:28:35;5.63;;;3.33;;
4009;SDS011;2019;48.200;11.548;2022-08-21T06:31:09;6.10;;;3.17;;
4009;SDS011;2019;48.200;11.548;2022-08-21T06:33:39;8.23;;;3.40;;
4009;SDS011;2019;48.200;11.548;2022-08-21T06:36:05;6.23;;;3.57;;
4009;SDS011;2019;48.200;11.548;2022-08-21T06:38:31;3.47;;;2.67;;
4009;SDS011;2019;48.200;11.548;2022-08-21T06:40:56;5.37;;;3.47;;
4009;SDS011;2019;48.200;11.548;2022-08-21T06:43:22;5.90;;;3.60;;
4009;SDS011;2019;48.200;11.548;2022-08-21T06:45:48;4.73;;;3.57;;
4009;SDS011;2019;48.200;11.548;2022-08-21T06:48:13;5.00;;;3.40;;
4009;SDS011;2019;48.200;11.548;2022-08-21T06:50:39;8.93;;;3.37;;
4009;SDS011;2019;48.200;11.548;2022-08-21T06:53:06;4.20;;;2.70;;
4009;SDS011;2019;48.200;11.548;2022-08-21T06:55:34;6.30;;;3.60;;
4009;SDS011;2019;48.200;11.548;2022-08-21T06:58:00;5.40;;;3.37;;
4009;SDS011;2019;48.200;11.548;2022-08-21T07:00:26;5.47;;;3.97;;
4009;SDS011;2019;48.200;11.548;2022-08-21T07:02:51;5.30;;;3.50;;
4009;SDS011;2019;48.200;11.548;2022-08-21T07:05:17;4.70;;;3.20;;
4009;SDS011;2019;48.200;11.548;2022-08-21T07:07:43;5.07;;;3.57;;
4009;SDS011;2019;48.200;11.548;2022-08-21T07:10:09;4.47;;;3.50;;
4009;SDS011;2019;48.200;11.548;2022-08-21T07:12:34;5.20;;;3.30;;
4009;SDS011;2019;48.200;11.548;2022-08-21T07:15:00;7.83;;;3.70;;
4009;SDS011;2019;48.200;11.548;2022-08-21T07:17:26;5.90;;;4.37;;
4009;SDS011;2019;48.200;11.548;2022-08-21T07:19:51;7.80;;;4.70;;
4009;SDS011;2019;48.200;11.548;2022-08-21T07:22:18;7.63;;;4.80;;
4009;SDS011;2019;48.200;11.548;2022-08-21T07:24:45;7.33;;;4.80;;
4009;SDS011;2019;48.200;11.548;2022-08-21T07:27:11;10.13;;;4.63;;
4009;SDS011;2019;48.200;11.548;2022-08-21T07:29:38;7.17;;;4.30;;
4009;SDS011;2019;48.200;11.548;2022-08-21T07:32:03;9.13;;;4.87;;
4009;SDS011;2019;48.200;11.548;2022-08-21T07:34:30;6.27;;;4.87;;
4009;SDS011;2019;48.200;11.548;2022-08-21T07:36:56;7.43;;;5.37;;
4009;SDS011;2019;48.200;11.548;2022-08-21T07:39:22;6.37;;;4.80;;
4009;SDS011;2019;48.200;11.548;2022-08-21T07:41:48;5.87;;;3.80;;
4009;SDS011;2019;48.200;11.548;2022-08-21T07:44:14;7.07;;;5.00;;
4009;SDS011;2019;48.200;11.548;2022-08-21T07:46:42;7.50;;;5.27;;
4009;SDS011;2019;48.200;11.548;2022-08-21T07:49:07;6.10;;;4.63;;
4009;SDS011;2019;48.200;11.548;2022-08-21T07:51:33;7.10;;;5.20;;
4009;SDS011;2019;48.200;11.548;2022-08-21T07:53:59;5.00;;;4.50;;
4009;SDS011;2019;48.200;11.548;2022-08-21T07:56:26;7.53;;;4.47;;
4009;SDS011;2019;48.200;11.548;2022-08-21T07:58:52;8.10;;;4.77;;
4009;SDS011;2019;48.200;11.548;2022-08-21T08:01:18;8.47;;;5.90;;
4009;SDS011;2019;48.200;11.548;2022-08-21T08:03:45;6.50;;;5.13;;
4009;SDS011;2019;48.200;11.548;2022-08-21T08:06:11;10.03;;;5.10;;
4009;SDS011;2019;48.200;11.548;2022-08-21T08:08:40;7.33;;;5.13;;
4009;SDS011;2019;48.200;11.548;2022-08-21T08:11:07;5.00;;;4.17;;
4009;SDS011;2019;48.200;11.548;2022-08-21T08:13:46;9.03;;;5.80;;
4009;SDS011;2019;48.200;11.548;2022-08-21T08:16:13;8.97;;;5.80;;
4009;SDS011;2019;48.200;11.548;2022-08-21T08:18:39;12.27;;;4.77;;
4009;SDS011;2019;48.200;11.548;2022-08-21T08:21:07;8.53;;;5.23;;
4009;SDS011;2019;48.200;11.548;2022-08-21T08:23:34;8.37;;;4.93;;
4009;SDS011;2019;48.200;11.548;2022-08-21T08:26:00;8.97;;;5.90;;
4009;SDS011;2019;48.200;11.548;2022-08-21T08:28:30;8.47;;;6.20;;
4009;SDS011;2019;48.200;11.548;2022-08-21T08:30:57;6.73;;;5.20;;
4009;SDS011;2019;48.200;11.548;2022-08-21T08:33:23;6.43;;;5.20;;
4009;SDS011;2019;48.200;11.548;2022-08-21T08:35:49;7.73;;;4.80;;
4009;SDS011;2019;48.200;11.548;2022-08-21T08:38:17;6.17;;;5.07;;
4009;SDS011;2019;48.200;11.548;2022-08-21T08:40:54;7.07;;;5.60;;
4009;SDS011;2019;48.200;11.548;2022-08-21T08:43:33;7.00;;;5.30;;
4009;SDS011;2019;48.200;11.548;2022-08-21T08:46:01;6.70;;;4.50;;
4009;SDS011;2019;48.200;11.548;2022-08-21T08:51:19;7.73;;;6.20;;
4009;SDS011;2019;48.200;11.548;2022-08-21T08:53:56;7.50;;;6.60;;
4009;SDS011;2019;48.200;11.548;2022-08-21T08:56:31;8.17;;;5.90;;
4009;SDS011;2019;48.200;11.548;2022-08-21T08:59:00;7.90;;;6.37;;
4009;SDS011;2019;48.200;11.548;2022-08-21T09:01:33;10.73;;;6.60;;
4009;SDS011;2019;48.200;11.548;2022-08-21T09:03:59;8.90;;;6.03;;
4009;SDS011;2019;48.200;11.548;2022-08-21T09:06:28;8.60;;;6.60;;
4009;SDS011;2019;48.200;11.548;2022-08-21T09:12:02;8.33;;;5.07;;
4009;SDS011;2019;48.200;11.548;2022-08-21T09:15:02;7.40;;;5.77;;
4009;SDS011;2019;48.200;11.548;2022-08-21T09:20:32;8.17;;;6.30;;
4009;SDS011;2019;48.200;11.548;2022-08-21T09:23:33;8.23;;;5.90;;
4009;SDS011;2019;48.200;11.548;2022-08-21T09:26:21;6.10;;;5.20;;
4009;SDS011;2019;48.200;11.548;2022-08-21T09:28:53;8.90;;;6.30;;
4009;SDS011;2019;48.200;11.548;2022-08-21T09:31:22;5.27;;;4.77;;
4009;SDS011;2019;48.200;11.548;2022-08-21T09:33:56;7.00;;;6.27;;
4009;SDS011;2019;48.200;11.548;2022-08-21T09:36:24;10.50;;;5.43;;
4009;SDS011;2019;48.200;11.548;2022-08-21T09:38:56;8.67;;;5.40;;
4009;SDS011;2019;48.200;11.548;2022-08-21T09:41:29;7.90;;;5.20;;
4009;SDS011;2019;48.200;11.548;2022-08-21T09:43:57;6.70;;;5.10;;
4009;SDS011;2019;48.200;11.548;2022-08-21T09:46:24;7.13;;;5.23;;
4009;SDS011;2019;48.200;11.548;2022-08-21T09:48:52;10.50;;;5.80;;
4009;SDS011;2019;48.200;11.548;2022-08-21T09:51:21;6.73;;;5.47;;
4009;SDS011;2019;48.200;11.548;2022-08-21T09:53:53;6.60;;;5.47;;
4009;SDS011;2019;48.200;11.548;2022-08-21T09:56:28;9.80;;;5.00;;
4009;SDS011;2019;48.200;11.548;2022-08-21T09:59:17;6.83;;;4.60;;
4009;SDS011;2019;48.200;11.548;2022-08-21T10:01:46;6.70;;;4.70;;
4009;SDS011;2019;48.200;11.548;2022-08-21T10:04:13;5.90;;;4.97;;
4009;SDS011;2019;48.200;11.548;2022-08-21T10:06:39;5.60;;;4.13;;
4009;SDS011;2019;48.200;11.548;2022-08-21T10:09:15;5.70;;;5.10;;
4009;SDS011;2019;48.200;11.548;2022-08-21T10:11:55;8.63;;;4.73;;
4009;SDS011;2019;48.200;11.548;2022-08-21T10:19:55;5.33;;;4.83;;
4009;SDS011;2019;48.200;11.548;2022-08-21T10:25:06;10.57;;;5.50;;
4009;SDS011;2019;48.200;11.548;2022-08-21T10:51:54;6.40;;;5.33;;
4009;SDS011;2019;48.200;11.548;2022-08-21T10:54:40;7.67;;;4.67;;
4009;SDS011;2019;48.200;11.548;2022-08-21T10:57:24;5.97;;;5.30;;
4009;SDS011;2019;48.200;11.548;2022-08-21T11:00:05;5.80;;;4.77;;
4009;SDS011;2019;48.200;11.548;2022-08-21T11:02:42;7.57;;;4.70;;
4009;SDS011;2019;48.200;11.548;2022-08-21T11:05:23;4.50;;;4.10;;
4009;SDS011;2019;48.200;11.548;2022-08-21T11:07:57;7.70;;;4.20;;
4009;SDS011;2019;48.200;11.548;2022-08-21T11:10:26;4.47;;;4.03;;
4009;SDS011;2019;48.200;11.548;2022-08-21T11:13:01;8.07;;;5.13;;
4009;SDS011;2019;48.200;11.548;2022-08-21T11:15:37;5.13;;;4.23;;
4009;SDS011;2019;48.200;11.548;2022-08-21T11:20:54;4.93;;;4.37;;
4009;SDS011;2019;48.200;11.548;2022-08-21T11:23:29;4.70;;;4.27;;
4009;SDS011;2019;48.200;11.548;2022-08-21T11:26:02;5.07;;;4.57;;
4009;SDS011;2019;48.200;11.548;2022-08-21T11:28:35;5.40;;;4.00;;
4009;SDS011;2019;48.200;11.548;2022-08-21T11:31:28;6.30;;;4.23;;
4009;SDS011;2019;48.200;11.548;2022-08-21T11:40:00;5.40;;;3.73;;
4009;SDS011;2019;48.200;11.548;2022-08-21T11:42:37;3.90;;;3.30;;
4009;SDS011;2019;48.200;11.548;2022-08-21T11:45:26;5.00;;;3.57;;
4009;SDS011;2019;48.200;11.548;2022-08-21T11:51:07;4.57;;;3.80;;
4009;SDS011;2019;48.200;11.548;2022-08-21T11:53:50;5.43;;;3.47;;
4009;SDS011;2019;48.200;11.548;2022-08-21T11:56:30;4.13;;;2.90;;
4009;SDS011;2019;48.200;11.548;2022-08-21T11:59:04;5.17;;;3.40;;
4009;SDS011;2019;48.200;11.548;2022-08-21T12:01:36;5.20;;;4.00;;
4009;SDS011;2019;48.200;11.548;2022-08-21T12:04:17;4.50;;;3.83;;
4009;SDS011;2019;48.200;11.548;2022-08-21T12:06:56;4.00;;;3.53;;
4009;SDS011;2019;48.200;11.548;2022-08-21T12:09:34;6.60;;;4.50;;
4009;SDS011;2019;48.200;11.548;2022-08-21T12:12:06;5.83;;;3.60;;
4009;SDS011;2019;48.200;11.548;2022-08-21T12:14:49;7.87;;;4.20;;
4009;SDS011;2019;48.200;11.548;2022-08-21T12:17:20;4.20;;;3.30;;
4009;SDS011;2019;48.200;11.548;2022-08-21T12:20:00;4.10;;;3.70;;
4009;SDS011;2019;48.200;11.548;2022-08-21T12:22:40;7.43;;;3.33;;
4009;SDS011;2019;48.200;11.548;2022-08-21T12:25:07;5.57;;;3.60;;
4009;SDS011;2019;48.200;11.548;2022-08-21T12:27:52;4.43;;;3.30;;
4009;SDS011;2019;48.200;11.548;2022-08-21T12:32:57;4.50;;;3.30;;
4009;SDS011;2019;48.200;11.548;2022-08-21T12:35:25;3.53;;;2.93;;
4009;SDS011;2019;48.200;11.548;2022-08-21T12:38:17;4.60;;;3.57;;
4009;SDS011;2019;48.200;11.548;2022-08-21T12:40:50;5.47;;;3.40;;
4009;SDS011;2019;48.200;11.548;2022-08-21T12:43:42;4.60;;;3.70;;
4009;SDS011;2019;48.200;11.548;2022-08-21T12:46:14;3.00;;;2.70;;
4009;SDS011;2019;48.200;11.548;2022-08-21T12:48:54;5.33;;;4.17;;
4009;SDS011;2019;48.200;11.548;2022-08-21T12:51:52;3.53;;;3.20;;
4009;SDS011;2019;48.200;11.548;2022-08-21T12:54:32;3.90;;;3.20;;
4009;SDS011;2019;48.200;11.548;2022-08-21T12:57:04;5.73;;;3.67;;
4009;SDS011;2019;48.200;11.548;2022-08-21T12:59:36;4.90;;;3.70;;
4009;SDS011;2019;48.200;11.548;2022-08-21T13:02:03;4.13;;;3.40;;
4009;SDS011;2019;48.200;11.548;2022-08-21T13:04:46;6.23;;;3.30;;
4009;SDS011;2019;48.200;11.548;2022-08-21T13:07:15;5.70;;;3.10;;
4009;SDS011;2019;48.200;11.548;2022-08-21T13:09:48;4.50;;;3.20;;
4009;SDS011;2019;48.200;11.548;2022-08-21T13:12:17;4.00;;;3.60;;
4009;SDS011;2019;48.200;11.548;2022-08-21T13:14:45;4.50;;;3.73;;
4009;SDS011;2019;48.200;11.548;2022-08-21T13:17:16;5.07;;;4.10;;
4009;SDS011;2019;48.200;11.548;2022-08-21T13:19:52;4.10;;;3.70;;
4009;SDS011;2019;48.200;11.548;2022-08-21T13:22:22;4.60;;;3.77;;
4009;SDS011;2019;48.200;11.548;2022-08-21T13:24:49;5.40;;;3.40;;
4009;SDS011;2019;48.200;11.548;2022-08-21T13:27:25;6.20;;;3.47;;
4009;SDS011;2019;48.200;11.548;2022-08-21T13:30:13;6.63;;;3.13;;
4009;SDS011;2019;48.200;11.548;2022-08-21T13:32:44;3.50;;;3.20;;
4009;SDS011;2019;48.200;11.548;2022-08-21T13:35:18;3.57;;;3.27;;
4009;SDS011;2019;48.200;11.548;2022-08-21T13:37:50;3.63;;;2.97;;
4009;SDS011;2019;48.200;11.548;2022-08-21T13:40:19;6.50;;;3.33;;
4009;SDS011;2019;48.200;11.548;2022-08-21T13:42:50;8.83;;;3.50;;
4009;SDS011;2019;48.200;11.548;2022-08-21T13:45:23;4.03;;;2.73;;
4009;SDS011;2019;48.200;11.548;2022-08-21T13:47:56;4.87;;;3.27;;
4009;SDS011;2019;48.200;11.548;2022-08-21T13:50:25;3.20;;;2.90;;
4009;SDS011;2019;48.200;11.548;2022-08-21T13:53:01;6.70;;;3.33;;
4009;SDS011;2019;48.200;11.548;2022-08-21T13:58:03;4.03;;;3.20;;
4009;SDS011;2019;48.200;11.548;2022-08-21T14:00:30;6.47;;;3.40;;
4009;SDS011;2019;48.200;11.548;2022-08-21T14:03:08;4.00;;;3.07;;
4009;SDS011;2019;48.200;11.548;2022-08-21T14:05:36;5.43;;;3.33;;
4009;SDS011;2019;48.200;11.548;2022-08-21T14:08:12;7.70;;;3.23;;
4009;SDS011;2019;48.200;11.548;2022-08-21T14:10:49;3.73;;;3.30;;
4009;SDS011;2019;48.200;11.548;2022-08-21T14:15:59;3.40;;;3.10;;
4009;SDS011;2019;48.200;11.548;2022-08-21T14:18:26;5.00;;;3.87;;
4009;SDS011;2019;48.200;11.548;2022-08-21T14:21:03;4.43;;;3.33;;
4009;SDS011;2019;48.200;11.548;2022-08-21T14:23:34;4.73;;;3.17;;
4009;SDS011;2019;48.200;11.548;2022-08-21T14:26:00;6.90;;;3.60;;
4009;SDS011;2019;48.200;11.548;2022-08-21T14:31:10;5.90;;;3.83;;
4009;SDS011;2019;48.200;11.548;2022-08-21T14:33:39;4.50;;;2.93;;
4009;SDS011;2019;48.200;11.548;2022-08-21T14:36:04;3.93;;;3.57;;
4009;SDS011;2019;48.200;11.548;2022-08-21T14:38:30;5.87;;;3.43;;
4009;SDS011;2019;48.200;11.548;2022-08-21T14:40:58;4.20;;;3.27;;
4009;SDS011;2019;48.200;11.548;2022-08-21T14:43:28;3.27;;;2.97;;
4009;SDS011;2019;48.200;11.548;2022-08-21T14:45:55;5.50;;;2.87;;
4009;SDS011;2019;48.200;11.548;2022-08-21T14:48:21;4.37;;;3.97;;
4009;SDS011;2019;48.200;11.548;2022-08-21T14:50:47;5.80;;;3.77;;
4009;SDS011;2019;48.200;11.548;2022-08-21T14:53:12;5.07;;;3.40;;
4009;SDS011;2019;48.200;11.548;2022-08-21T14:55:38;5.10;;;3.70;;
4009;SDS011;2019;48.200;11.548;2022-08-21T14:58:23;5.40;;;3.60;;
4009;SDS011;2019;48.200;11.548;2022-08-21T15:00:50;4.43;;;3.60;;
4009;SDS011;2019;48.200;11.548;2022-08-21T15:03:17;6.30;;;4.47;;
4009;SDS011;2019;48.200;11.548;2022-08-21T15:05:43;7.50;;;4.03;;
4009;SDS011;2019;48.200;11.548;2022-08-21T15:08:09;4.43;;;3.70;;
4009;SDS011;2019;48.200;11.548;2022-08-21T15:10:35;4.90;;;4.13;;
4009;SDS011;2019;48.200;11.548;2022-08-21T15:13:01;7.33;;;4.10;;
4009;SDS011;2019;48.200;11.548;2022-08-21T15:15:28;4.40;;;3.93;;
4009;SDS011;2019;48.200;11.548;2022-08-21T15:18:15;5.40;;;3.80;;
4009;SDS011;2019;48.200;11.548;2022-08-21T15:20:40;6.53;;;4.30;;
4009;SDS011;2019;48.200;11.548;2022-08-21T15:23:06;5.90;;;4.10;;
4009;SDS011;2019;48.200;11.548;2022-08-21T15:25:33;5.40;;;3.63;;
4009;SDS011;2019;48.200;11.548;2022-08-21T15:28:00;7.83;;;4.80;;
4009;SDS011;2019;48.200;11.548;2022-08-21T15:30:27;11.33;;;4.20;;
4009;SDS011;2019;48.200;11.548;2022-08-21T15:32:55;7.73;;;4.70;;
4009;SDS011;2019;48.200;11.548;2022-08-21T15:35:21;7.30;;;4.27;;
4009;SDS011;2019;48.200;11.548;2022-08-21T15:37:46;5.37;;;4.20;;
4009;SDS011;2019;48.200;11.548;2022-08-21T15:40:12;5.80;;;4.57;;
4009;SDS011;2019;48.200;11.548;2022-08-21T15:42:41;5.23;;;3.77;;
4009;SDS011;2019;48.200;11.548;2022-08-21T15:45:08;3.90;;;3.37;;
4009;SDS011;2019;48.200;11.548;2022-08-21T15:47:36;4.87;;;3.60;;
4009;SDS011;2019;48.200;11.548;2022-08-21T15:50:04;6.50;;;4.40;;
4009;SDS011;2019;48.200;11.548;2022-08-21T15:52:32;5.33;;;3.57;;
4009;SDS011;2019;48.200;11.548;2022-08-21T15:54:58;6.63;;;4.10;;
4009;SDS011;2019;48.200;11.548;2022-08-21T15:57:24;7.60;;;4.37;;
4009;SDS011;2019;48.200;11.548;2022-08-21T15:59:52;5.00;;;3.30;;
4009;SDS011;2019;48.200;11.548;2022-08-21T16:02:23;4.80;;;4.10;;
4009;SDS011;2019;48.200;11.548;2022-08-21T16:04:51;5.10;;;3.77;;
4009;SDS011;2019;48.200;11.548;2022-08-21T16:07:17;4.57;;;3.77;;
4009;SDS011;2019;48.200;11.548;2022-08-21T16:09:43;7.13;;;4.07;;
4009;SDS011;2019;48.200;11.548;2022-08-21T16:12:14;9.20;;;3.70;;
4009;SDS011;2019;48.200;11.548;2022-08-21T16:14:46;6.67;;;3.80;;
4009;SDS011;2019;48.200;11.548;2022-08-21T16:17:12;4.20;;;3.40;;